Time;durP1;ratioP1;P1;durP2;ratioP2;P2;SDS_P1;SDS_P2;PMS_P1;PMS_P2;Temp;Humidity;BMP_temperature;BMP_pressure;BME280_temperature;BME280_humidity;BME280_pressure;Samples;Min_cycle;Max_cycle;Signal;HPM_P1;HPM_P2
2023/03/27 00:01:11;;;;;;;;;1.50;1.50;;;;;;;;5041380;28;11552;-94
2023/03/27 00:03:40;;;;;;;;;0.00;0.00;;;;;;;;5047711;28;11636;-84
2023/03/27 00:06:10;;;;;;;;;1.00;1.00;;;;;;;;5051214;28;11483;-84
2023/03/27 00:08:40;;;;;;;;;1.00;1.00;;;;;;;;5048946;28;11611;-85
2023/03/27 00:11:08;;;;;;;;;1.00;1.00;;;;;;;;5050482;28;11499;-84
2023/03/27 00:13:35;;;;;;;;;0.50;0.50;;;;;;;;5047875;28;11454;-84
2023/03/27 00:16:04;;;;;;;;;4.25;2.00;;;;;;;;5030067;28;11514;-84
2023/03/27 00:18:32;;;;;;;;;0.25;0.25;;;;;;;;5043068;28;11489;-85
2023/03/27 00:21:01;;;;;;;;;0.00;0.00;;;;;;;;5049225;28;11528;-85
2023/03/27 00:23:29;;;;;;;;;2.50;1.00;;;;;;;;5048069;28;11636;-84
2023/03/27 00:25:59;;;;;;;;;1.00;1.00;;;;;;;;5062009;28;11518;-91
2023/03/27 00:28:27;;;;;;;;;1.75;1.00;;;;;;;;5052705;28;11553;-94
2023/03/27 00:30:55;;;;;;;;;1.00;1.00;;;;;;;;5038448;28;11400;-93
2023/03/27 00:33:24;;;;;;;;;1.00;1.00;;;;;;;;5056736;28;11534;-92
2023/03/27 00:35:51;;;;;;;;;2.00;0.25;;;;;;;;5057707;28;11504;-92
2023/03/27 00:38:19;;;;;;;;;1.50;1.50;;;;;;;;5052674;28;11514;-92
2023/03/27 00:40:47;;;;;;;;;1.00;1.00;;;;;;;;5048729;28;11486;-92
2023/03/27 00:43:21;;;;;;;;;1.75;0.50;;;;;;;;5048446;28;11498;-92
2023/03/27 00:45:50;;;;;;;;;0.50;0.50;;;;;;;;5050431;28;11601;-90
2023/03/27 00:48:19;;;;;;;;;2.25;1.00;;;;;;;;5051604;28;11622;-93
2023/03/27 00:50:47;;;;;;;;;1.25;0.75;;;;;;;;5052171;28;11518;-93
2023/03/27 00:53:19;;;;;;;;;0.00;0.00;;;;;;;;5051948;28;11499;-91
2023/03/27 00:55:50;;;;;;;;;0.00;0.00;;;;;;;;5045990;28;11523;-91
2023/03/27 00:58:22;;;;;;;;;1.00;1.00;;;;;;;;5045975;28;11567;-89
2023/03/27 01:00:53;;;;;;;;;2.00;0.25;;;;;;;;5044296;28;11423;-91
2023/03/27 01:03:21;;;;;;;;;1.50;1.50;;;;;;;;5044113;28;11426;-84
2023/03/27 01:05:49;;;;;;;;;0.75;0.75;;;;;;;;5051238;28;11495;-84
2023/03/27 01:08:17;;;;;;;;;0.00;0.00;;;;;;;;5052554;28;11499;-85
2023/03/27 01:10:53;;;;;;;;;0.25;0.25;;;;;;;;5041054;28;11498;-84
2023/03/27 01:13:34;;;;;;;;;0.75;0.75;;;;;;;;5034795;28;11523;-86
2023/03/27 01:16:08;;;;;;;;;4.50;1.25;;;;;;;;5042871;28;11459;-85
2023/03/27 01:18:41;;;;;;;;;1.00;1.00;;;;;;;;5045143;28;11479;-95
2023/03/27 01:21:41;;;;;;;;;1.00;1.00;;;;;;;;5049483;28;12245;-92
2023/03/27 01:24:59;;;;;;;;;0.75;0.75;;;;;;;;5026188;28;11634;-92
2023/03/27 01:27:57;;;;;;;;;2.00;0.75;;;;;;;;5015515;28;11595;-92
2023/03/27 01:30:30;;;;;;;;;1.00;1.00;;;;;;;;5059189;28;11417;-91
2023/03/27 01:33:17;;;;;;;;;0.00;0.00;;;;;;;;5059644;28;11583;-92
2023/03/27 01:35:55;;;;;;;;;3.75;0.00;;;;;;;;5055314;28;11522;-90
2023/03/27 01:39:06;;;;;;;;;3.00;2.00;;;;;;;;5052989;28;11629;-94
2023/03/27 01:41:37;;;;;;;;;1.25;1.25;;;;;;;;5054115;28;11500;-93
2023/03/27 01:44:08;;;;;;;;;1.00;1.00;;;;;;;;5056491;28;11513;-90
2023/03/27 01:46:40;;;;;;;;;4.50;2.00;;;;;;;;5051270;28;11534;-88
2023/03/27 01:49:12;;;;;;;;;2.00;1.00;;;;;;;;5052406;28;11614;-92
2023/03/27 01:51:41;;;;;;;;;1.75;1.75;;;;;;;;5058598;28;11477;-95
2023/03/27 01:54:12;;;;;;;;;6.00;2.00;;;;;;;;5053439;28;11593;-94
2023/03/27 01:56:50;;;;;;;;;2.75;1.50;;;;;;;;5053406;28;12205;-96
2023/03/27 01:59:20;;;;;;;;;1.00;1.00;;;;;;;;5058193;28;11537;-92
2023/03/27 02:01:53;;;;;;;;;2.00;0.75;;;;;;;;5059998;28;11436;-95
2023/03/27 02:04:25;;;;;;;;;2.00;2.00;;;;;;;;5053044;28;11506;-88
2023/03/27 02:06:57;;;;;;;;;1.00;1.00;;;;;;;;5051949;28;11483;-85
2023/03/27 02:09:28;;;;;;;;;1.00;1.00;;;;;;;;5053225;28;11567;-88
2023/03/27 02:12:00;;;;;;;;;1.50;1.50;;;;;;;;5052268;28;11602;-87
2023/03/27 02:14:30;;;;;;;;;3.00;2.00;;;;;;;;5052272;28;11521;-86
2023/03/27 02:17:02;;;;;;;;;5.75;1.75;;;;;;;;5051695;28;11506;-92
2023/03/27 02:19:34;;;;;;;;;1.00;1.00;;;;;;;;5051877;28;11492;-91
2023/03/27 02:22:02;;;;;;;;;2.00;1.00;;;;;;;;5052617;28;12323;-93
2023/03/27 02:24:29;;;;;;;;;2.00;1.50;;;;;;;;5052067;28;11491;-93
2023/03/27 02:27:03;;;;;;;;;2.00;2.00;;;;;;;;5057627;28;11537;-95
2023/03/27 02:29:38;;;;;;;;;1.75;0.00;;;;;;;;5058683;28;11487;-90
2023/03/27 02:32:16;;;;;;;;;0.25;0.25;;;;;;;;5048547;28;11550;-90
2023/03/27 02:34:55;;;;;;;;;1.00;1.00;;;;;;;;5047859;28;11447;-88
2023/03/27 02:37:29;;;;;;;;;1.25;1.00;;;;;;;;5035620;28;11449;-88
2023/03/27 02:39:58;;;;;;;;;0.25;0.25;;;;;;;;5053598;28;11497;-90
2023/03/27 02:42:33;;;;;;;;;3.75;1.25;;;;;;;;5054525;28;11619;-88
2023/03/27 02:45:07;;;;;;;;;2.00;1.75;;;;;;;;5054640;28;11518;-91
2023/03/27 02:47:39;;;;;;;;;1.00;1.00;;;;;;;;5056663;28;11594;-94
2023/03/27 02:50:13;;;;;;;;;1.25;0.00;;;;;;;;5057497;28;11568;-96
2023/03/27 02:52:43;;;;;;;;;2.50;0.75;;;;;;;;5050362;28;11513;-94
2023/03/27 02:55:15;;;;;;;;;1.00;1.00;;;;;;;;5057946;28;11497;-90
2023/03/27 02:57:45;;;;;;;;;0.25;0.25;;;;;;;;5052680;28;11609;-87
2023/03/27 03:00:24;;;;;;;;;1.50;1.50;;;;;;;;5055897;28;11510;-85
2023/03/27 03:02:54;;;;;;;;;1.00;1.00;;;;;;;;5051882;28;11499;-92
2023/03/27 03:05:24;;;;;;;;;1.75;1.75;;;;;;;;5044063;28;11515;-94
2023/03/27 03:07:53;;;;;;;;;4.00;0.50;;;;;;;;5044957;28;11437;-93
2023/03/27 03:10:21;;;;;;;;;1.00;1.00;;;;;;;;5038536;28;11647;-92
2023/03/27 03:12:50;;;;;;;;;0.50;0.50;;;;;;;;5050101;28;11583;-92
2023/03/27 03:15:18;;;;;;;;;0.00;0.00;;;;;;;;5046801;28;11597;-94
2023/03/27 03:17:45;;;;;;;;;1.00;0.00;;;;;;;;5047727;28;11593;-94
2023/03/27 03:20:13;;;;;;;;;1.00;1.00;;;;;;;;5055961;28;11523;-94
2023/03/27 03:22:41;;;;;;;;;1.75;1.00;;;;;;;;5049827;28;11506;-94
2023/03/27 03:25:09;;;;;;;;;0.00;0.00;;;;;;;;5059313;28;11525;-95
2023/03/27 03:27:37;;;;;;;;;2.00;0.00;;;;;;;;5060345;28;11494;-96
2023/03/27 03:30:11;;;;;;;;;0.50;0.50;;;;;;;;5065381;28;11494;-91
2023/03/27 03:32:38;;;;;;;;;0.00;0.00;;;;;;;;5060752;28;11483;-91
2023/03/27 03:35:07;;;;;;;;;0.25;0.25;;;;;;;;5051532;28;11568;-92
2023/03/27 03:37:37;;;;;;;;;1.50;1.50;;;;;;;;5051463;28;11498;-90
2023/03/27 03:40:10;;;;;;;;;2.00;0.25;;;;;;;;5050399;28;11499;-93
2023/03/27 03:42:40;;;;;;;;;0.00;0.00;;;;;;;;5049969;28;11512;-89
2023/03/27 03:45:11;;;;;;;;;2.00;0.00;;;;;;;;5050703;28;11491;-90
2023/03/27 03:47:38;;;;;;;;;1.75;1.75;;;;;;;;5049952;28;11561;-92
2023/03/27 03:50:06;;;;;;;;;2.00;2.00;;;;;;;;5048704;28;11653;-90
2023/03/27 03:52:34;;;;;;;;;0.75;0.75;;;;;;;;5053614;28;11489;-89
2023/03/27 03:55:02;;;;;;;;;1.00;1.00;;;;;;;;5055008;28;11651;-86
2023/03/27 03:57:30;;;;;;;;;1.00;1.00;;;;;;;;5053676;28;11481;-88
2023/03/27 03:59:57;;;;;;;;;1.00;1.00;;;;;;;;5053041;28;11573;-88
2023/03/27 04:02:29;;;;;;;;;3.25;0.00;;;;;;;;5050817;28;11405;-86
2023/03/27 04:04:57;;;;;;;;;5.00;1.00;;;;;;;;5050409;28;11603;-86
2023/03/27 04:07:30;;;;;;;;;1.00;1.00;;;;;;;;5047756;28;11644;-86
2023/03/27 04:09:58;;;;;;;;;1.50;1.00;;;;;;;;5048448;28;11566;-89
2023/03/27 04:12:26;;;;;;;;;1.75;1.75;;;;;;;;5047476;28;11502;-94
2023/03/27 04:14:53;;;;;;;;;1.00;1.00;;;;;;;;5048736;28;11500;-91
2023/03/27 04:17:21;;;;;;;;;0.75;0.50;;;;;;;;5044564;28;11514;-89
2023/03/27 04:19:53;;;;;;;;;2.00;2.00;;;;;;;;5052824;28;11460;-89
2023/03/27 04:22:21;;;;;;;;;0.25;0.25;;;;;;;;5064229;28;11588;-88
2023/03/27 04:24:49;;;;;;;;;1.00;1.00;;;;;;;;5055949;28;11502;-89
2023/03/27 04:27:16;;;;;;;;;0.00;0.00;;;;;;;;5049972;28;12249;-89
2023/03/27 04:29:46;;;;;;;;;0.00;0.00;;;;;;;;5049570;28;11516;-88
2023/03/27 04:32:17;;;;;;;;;1.75;0.00;;;;;;;;5051462;28;11421;-91
2023/03/27 04:34:47;;;;;;;;;4.25;1.00;;;;;;;;5052074;28;11629;-91
2023/03/27 04:37:16;;;;;;;;;0.50;0.50;;;;;;;;5062491;28;11673;-90
2023/03/27 04:39:53;;;;;;;;;1.50;1.00;;;;;;;;5052112;28;11588;-85
2023/03/27 04:42:22;;;;;;;;;1.00;1.00;;;;;;;;5044253;28;11516;-94
2023/03/27 04:44:52;;;;;;;;;5.25;1.75;;;;;;;;5042215;28;11484;-95
2023/03/27 04:47:25;;;;;;;;;0.00;0.00;;;;;;;;5037416;28;11692;-88
2023/03/27 04:49:59;;;;;;;;;0.25;0.00;;;;;;;;5047640;28;11531;-96
2023/03/27 04:52:29;;;;;;;;;2.00;0.00;;;;;;;;5061408;28;11489;-96
2023/03/27 04:54:59;;;;;;;;;1.00;1.00;;;;;;;;5051104;28;11478;-95
2023/03/27 04:57:29;;;;;;;;;1.50;0.00;;;;;;;;5046353;28;11489;-94
2023/03/27 04:59:57;;;;;;;;;0.00;0.00;;;;;;;;5051501;28;11503;-90
2023/03/27 05:02:30;;;;;;;;;1.00;1.00;;;;;;;;5051958;28;11458;-90
2023/03/27 05:05:07;;;;;;;;;1.00;1.00;;;;;;;;5070154;28;11585;-94
2023/03/27 05:08:09;;;;;;;;;1.00;1.00;;;;;;;;5089606;28;11427;-84
2023/03/27 05:10:56;;;;;;;;;1.00;1.00;;;;;;;;5069263;28;11487;-86
2023/03/27 05:13:24;;;;;;;;;5.00;1.00;;;;;;;;5067448;28;11589;-88
2023/03/27 05:15:52;;;;;;;;;1.00;1.00;;;;;;;;5049458;28;11509;-92
2023/03/27 05:18:20;;;;;;;;;3.50;1.00;;;;;;;;5062128;28;11472;-89
2023/03/27 05:20:54;;;;;;;;;0.00;0.00;;;;;;;;5060075;28;11622;-94
2023/03/27 05:23:30;;;;;;;;;0.50;0.50;;;;;;;;5058938;28;11564;-93
2023/03/27 05:26:00;;;;;;;;;0.50;0.50;;;;;;;;5047730;28;11642;-92
2023/03/27 05:28:35;;;;;;;;;0.75;0.50;;;;;;;;5055266;28;11494;-91
2023/03/27 05:31:12;;;;;;;;;1.00;1.00;;;;;;;;5056379;28;11401;-89
2023/03/27 05:33:57;;;;;;;;;0.00;0.00;;;;;;;;5054520;28;11500;-90
2023/03/27 05:36:28;;;;;;;;;0.00;0.00;;;;;;;;5054787;28;11466;-95
2023/03/27 05:38:58;;;;;;;;;0.00;0.00;;;;;;;;5053348;28;11546;-93
2023/03/27 05:41:29;;;;;;;;;0.25;0.25;;;;;;;;5059207;28;11486;-91
2023/03/27 05:43:57;;;;;;;;;0.75;0.75;;;;;;;;5059461;28;11522;-89
2023/03/27 05:46:26;;;;;;;;;1.00;1.00;;;;;;;;5057552;28;11508;-87
2023/03/27 05:49:01;;;;;;;;;2.00;1.00;;;;;;;;5059444;28;11530;-92
2023/03/27 05:51:32;;;;;;;;;2.00;0.00;;;;;;;;5056733;28;11493;-91
2023/03/27 05:54:01;;;;;;;;;1.25;1.00;;;;;;;;5052856;28;11494;-94
2023/03/27 05:56:29;;;;;;;;;1.00;1.00;;;;;;;;5042207;28;11491;-95
2023/03/27 05:58:56;;;;;;;;;1.00;1.00;;;;;;;;5058152;28;11548;-91
2023/03/27 06:01:23;;;;;;;;;1.00;1.00;;;;;;;;5051143;28;11596;-77
2023/03/27 06:03:54;;;;;;;;;0.25;0.25;;;;;;;;5046751;28;11491;-76
2023/03/27 06:06:22;;;;;;;;;0.25;0.25;;;;;;;;5054717;28;11471;-76
2023/03/27 06:08:49;;;;;;;;;1.75;1.00;;;;;;;;5049997;28;11484;-77
2023/03/27 06:11:18;;;;;;;;;1.00;1.00;;;;;;;;5049650;28;11488;-72
2023/03/27 06:13:45;;;;;;;;;1.00;1.00;;;;;;;;5049530;28;12280;-74
2023/03/27 06:16:13;;;;;;;;;1.00;1.00;;;;;;;;5050703;28;11613;-76
2023/03/27 06:18:41;;;;;;;;;0.25;0.25;;;;;;;;5049499;28;11503;-75
2023/03/27 06:21:08;;;;;;;;;1.00;1.00;;;;;;;;5049695;28;11534;-77
2023/03/27 06:23:35;;;;;;;;;0.25;0.25;;;;;;;;5048386;28;11525;-78
2023/03/27 06:26:03;;;;;;;;;1.25;1.25;;;;;;;;5050938;28;11518;-75
2023/03/27 06:28:31;;;;;;;;;4.50;1.00;;;;;;;;5049802;28;11481;-75
2023/03/27 06:30:59;;;;;;;;;1.50;1.50;;;;;;;;5051028;28;11468;-75
2023/03/27 06:33:26;;;;;;;;;1.50;1.00;;;;;;;;5051682;28;11513;-77
2023/03/27 06:35:58;;;;;;;;;1.25;1.00;;;;;;;;5044744;28;11527;-75
2023/03/27 06:38:26;;;;;;;;;1.50;1.00;;;;;;;;5045720;28;11508;-77
2023/03/27 06:40:54;;;;;;;;;2.00;0.50;;;;;;;;5046468;28;11522;-75
2023/03/27 06:43:21;;;;;;;;;1.00;1.00;;;;;;;;5046213;28;11608;-75
2023/03/27 06:45:51;;;;;;;;;0.50;0.00;;;;;;;;5048416;28;11492;-75
2023/03/27 06:48:19;;;;;;;;;3.00;1.00;;;;;;;;5048475;28;11538;-73
2023/03/27 06:50:48;;;;;;;;;5.50;3.00;;;;;;;;5048221;28;12361;-74
2023/03/27 06:53:16;;;;;;;;;2.00;1.00;;;;;;;;5048269;28;11498;-72
2023/03/27 06:55:44;;;;;;;;;0.00;0.00;;;;;;;;5048364;28;11494;-73
2023/03/27 06:58:13;;;;;;;;;0.75;0.75;;;;;;;;5048448;28;11513;-71
2023/03/27 07:00:40;;;;;;;;;1.00;1.00;;;;;;;;5047510;28;11407;-71
2023/03/27 07:03:10;;;;;;;;;5.00;1.25;;;;;;;;5048059;28;11512;-74
2023/03/27 07:05:39;;;;;;;;;1.25;1.25;;;;;;;;5038076;28;11504;-75
2023/03/27 07:08:09;;;;;;;;;11.00;11.00;;;;;;;;5048154;28;11602;-74
2023/03/27 07:10:36;;;;;;;;;9.50;9.50;;;;;;;;5047928;28;12330;-77
2023/03/27 07:13:03;;;;;;;;;7.50;5.75;;;;;;;;5047810;28;11529;-76
2023/03/27 07:15:31;;;;;;;;;8.25;8.25;;;;;;;;5047968;28;11496;-74
2023/03/27 07:17:59;;;;;;;;;2.00;2.00;;;;;;;;5047495;28;11654;-74
2023/03/27 07:20:29;;;;;;;;;12.50;12.50;;;;;;;;5048666;28;11533;-74
2023/03/27 07:22:57;;;;;;;;;3.00;2.00;;;;;;;;5046532;28;11509;-74
2023/03/27 07:25:25;;;;;;;;;6.25;6.25;;;;;;;;5046679;28;11526;-75
2023/03/27 07:27:52;;;;;;;;;7.50;7.50;;;;;;;;5047844;28;11664;-75
2023/03/27 07:30:19;;;;;;;;;0.75;0.75;;;;;;;;5046480;28;11513;-72
2023/03/27 07:32:46;;;;;;;;;10.50;10.50;;;;;;;;5047141;28;11483;-70
2023/03/27 07:35:14;;;;;;;;;1.00;1.00;;;;;;;;5046723;28;11499;-72
2023/03/27 07:37:43;;;;;;;;;1.00;1.00;;;;;;;;5047100;28;11480;-74
2023/03/27 07:40:12;;;;;;;;;2.00;0.75;;;;;;;;5047253;28;11426;-72
2023/03/27 07:42:43;;;;;;;;;1.00;1.00;;;;;;;;5046556;28;11446;-72
2023/03/27 07:45:12;;;;;;;;;3.25;3.25;;;;;;;;5047698;28;11549;-71
2023/03/27 07:47:39;;;;;;;;;5.75;3.00;;;;;;;;5047003;28;11589;-71
2023/03/27 07:50:10;;;;;;;;;1.00;1.00;;;;;;;;5045936;28;11503;-73
2023/03/27 07:52:39;;;;;;;;;4.00;2.00;;;;;;;;5047114;28;11481;-73
2023/03/27 07:55:10;;;;;;;;;3.75;1.75;;;;;;;;5047422;28;11583;-71
2023/03/27 07:57:39;;;;;;;;;10.25;8.00;;;;;;;;5044072;28;11459;-72
2023/03/27 08:00:10;;;;;;;;;1.00;1.00;;;;;;;;5046440;28;11498;-73
2023/03/27 08:02:38;;;;;;;;;1.00;1.00;;;;;;;;5046711;28;11520;-74
2023/03/27 08:05:07;;;;;;;;;2.75;1.25;;;;;;;;5047156;28;11473;-73
2023/03/27 08:07:34;;;;;;;;;3.25;2.00;;;;;;;;5046069;28;11409;-74
2023/03/27 08:10:02;;;;;;;;;3.00;1.25;;;;;;;;5046502;28;11439;-75
2023/03/27 08:12:32;;;;;;;;;2.00;2.00;;;;;;;;5046666;28;11446;-76
2023/03/27 08:14:59;;;;;;;;;2.50;1.50;;;;;;;;5046952;28;11609;-76
2023/03/27 08:17:27;;;;;;;;;2.50;1.00;;;;;;;;5047503;28;11511;-76
2023/03/27 08:19:54;;;;;;;;;1.00;1.00;;;;;;;;5046952;28;11461;-77
2023/03/27 08:22:22;;;;;;;;;0.00;0.00;;;;;;;;5034415;28;11434;-76
2023/03/27 08:24:49;;;;;;;;;1.50;1.50;;;;;;;;5048632;28;11416;-76
2023/03/27 08:27:17;;;;;;;;;1.00;1.00;;;;;;;;5049682;28;11444;-76
2023/03/27 08:29:46;;;;;;;;;0.50;0.50;;;;;;;;5052069;28;12199;-81
2023/03/27 08:32:13;;;;;;;;;1.00;1.00;;;;;;;;5041720;28;11402;-78
2023/03/27 08:34:41;;;;;;;;;4.50;1.00;;;;;;;;5048517;28;11488;-77
2023/03/27 08:37:09;;;;;;;;;1.00;1.00;;;;;;;;5049861;28;11454;-73
2023/03/27 08:39:37;;;;;;;;;0.75;0.75;;;;;;;;5050588;28;11460;-76
2023/03/27 08:42:07;;;;;;;;;1.25;1.00;;;;;;;;5044973;28;11429;-72
2023/03/27 08:44:35;;;;;;;;;1.00;1.00;;;;;;;;5042537;28;12232;-73
2023/03/27 08:47:11;;;;;;;;;1.00;1.00;;;;;;;;5051067;28;11169;-74
2023/03/27 08:49:43;;;;;;;;;0.00;0.00;;;;;;;;5050405;28;11257;-73
2023/03/27 08:52:14;;;;;;;;;3.25;1.00;;;;;;;;5051143;28;11949;-74
2023/03/27 08:54:44;;;;;;;;;1.00;1.00;;;;;;;;5047947;28;11413;-74
2023/03/27 08:57:18;;;;;;;;;0.00;0.00;;;;;;;;5041963;28;11184;-78
2023/03/27 08:59:45;;;;;;;;;0.00;0.00;;;;;;;;5050708;28;11067;-77
2023/03/27 09:02:25;;;;;;;;;1.00;1.00;;;;;;;;5050683;28;10843;-77
2023/03/27 09:04:59;;;;;;;;;1.00;0.00;;;;;;;;5050318;28;11124;-76
2023/03/27 09:07:33;;;;;;;;;0.00;0.00;;;;;;;;5050425;28;10901;-78
2023/03/27 09:10:06;;;;;;;;;0.00;0.00;;;;;;;;5050896;28;11830;-76
2023/03/27 09:12:51;;;;;;;;;0.00;0.00;;;;;;;;5050447;28;11663;-74
2023/03/27 09:15:24;;;;;;;;;2.00;0.00;;;;;;;;5051567;28;10802;-74
2023/03/27 09:17:57;;;;;;;;;0.00;0.00;;;;;;;;5038776;28;10816;-75
2023/03/27 09:20:27;;;;;;;;;0.00;0.00;;;;;;;;5050446;28;11523;-72
2023/03/27 09:22:58;;;;;;;;;1.75;1.75;;;;;;;;5050000;28;10625;-74
2023/03/27 09:25:28;;;;;;;;;1.00;1.00;;;;;;;;5050228;28;10666;-73
2023/03/27 09:27:56;;;;;;;;;1.00;1.00;;;;;;;;5050608;28;10553;-71
2023/03/27 09:30:29;;;;;;;;;1.00;1.00;;;;;;;;5038531;28;10486;-71
2023/03/27 09:33:03;;;;;;;;;1.25;1.00;;;;;;;;5050323;28;10552;-76
2023/03/27 09:35:30;;;;;;;;;0.00;0.00;;;;;;;;5049989;28;10450;-72
2023/03/27 09:38:02;;;;;;;;;1.00;1.00;;;;;;;;5050298;28;10306;-71
2023/03/27 09:40:34;;;;;;;;;3.25;3.00;;;;;;;;5043819;28;10316;-72
2023/03/27 09:43:09;;;;;;;;;2.00;2.00;;;;;;;;5047228;28;11117;-72
2023/03/27 09:45:38;;;;;;;;;1.00;1.00;;;;;;;;5039641;28;10176;-71
2023/03/27 09:48:12;;;;;;;;;1.00;1.00;;;;;;;;5036897;28;10155;-74
2023/03/27 09:50:45;;;;;;;;;1.00;1.00;;;;;;;;5049588;28;10387;-74
2023/03/27 09:53:14;;;;;;;;;5.75;5.75;;;;;;;;5049797;28;11055;-76
2023/03/27 09:55:51;;;;;;;;;8.50;8.50;;;;;;;;5049825;28;10564;-77
2023/03/27 09:58:31;;;;;;;;;1.50;1.50;;;;;;;;5050201;28;10678;-77
2023/03/27 10:01:12;;;;;;;;;0.00;0.00;;;;;;;;5049437;28;10114;-77
2023/03/27 10:03:48;;;;;;;;;2.00;2.00;;;;;;;;5049588;28;10314;-77
2023/03/27 10:06:24;;;;;;;;;4.00;3.50;;;;;;;;5050559;28;10613;-72
2023/03/27 10:08:52;;;;;;;;;1.00;1.00;;;;;;;;5050210;28;10953;-76
2023/03/27 10:11:22;;;;;;;;;9.75;9.50;;;;;;;;5050032;28;11576;-74
2023/03/27 10:13:51;;;;;;;;;3.50;2.00;;;;;;;;5050015;28;11149;-77
2023/03/27 10:16:20;;;;;;;;;2.00;2.00;;;;;;;;5045645;28;10862;-72
2023/03/27 10:18:52;;;;;;;;;3.50;2.00;;;;;;;;5050133;28;10768;-72
2023/03/27 10:21:26;;;;;;;;;0.75;0.00;;;;;;;;5050480;28;10630;-71
2023/03/27 10:24:00;;;;;;;;;0.75;0.75;;;;;;;;5052710;28;10585;-72
2023/03/27 10:26:28;;;;;;;;;2.00;2.00;;;;;;;;5044095;28;10793;-71
2023/03/27 10:29:00;;;;;;;;;1.00;1.00;;;;;;;;5051349;28;10642;-74
2023/03/27 10:31:30;;;;;;;;;3.25;3.25;;;;;;;;5049325;28;10301;-72
2023/03/27 10:34:02;;;;;;;;;3.00;3.00;;;;;;;;5044829;28;10687;-72
2023/03/27 10:36:33;;;;;;;;;2.75;2.75;;;;;;;;5045203;28;10736;-73
2023/03/27 10:39:04;;;;;;;;;3.00;3.00;;;;;;;;5039734;28;10755;-74
2023/03/27 10:41:34;;;;;;;;;2.75;2.75;;;;;;;;5048882;28;10662;-73
2023/03/27 10:44:01;;;;;;;;;7.50;7.50;;;;;;;;5048941;28;10705;-72
2023/03/27 10:46:30;;;;;;;;;10.50;9.50;;;;;;;;5046911;28;10905;-73
2023/03/27 10:49:06;;;;;;;;;16.00;14.25;;;;;;;;5048669;28;11169;-73
2023/03/27 10:51:39;;;;;;;;;5.25;4.75;;;;;;;;5037280;28;11005;-74
2023/03/27 10:54:12;;;;;;;;;1.75;1.75;;;;;;;;5048710;28;10313;-73
2023/03/27 10:56:50;;;;;;;;;0.00;0.00;;;;;;;;5048659;28;10129;-73
2023/03/27 10:59:20;;;;;;;;;0.00;0.00;;;;;;;;5048171;28;9910;-72
2023/03/27 11:01:52;;;;;;;;;3.00;3.00;;;;;;;;5048973;28;9812;-72
2023/03/27 11:04:24;;;;;;;;;5.00;3.00;;;;;;;;5047191;28;9961;-73
2023/03/27 11:06:56;;;;;;;;;1.25;1.25;;;;;;;;5047101;28;9782;-72
2023/03/27 11:09:27;;;;;;;;;0.67;0.00;;;;;;;;5037741;28;9485;-72
2023/03/27 11:11:58;;;;;;;;;0.00;0.00;;;;;;;;5047719;28;9348;-72
2023/03/27 11:14:28;;;;;;;;;0.00;0.00;;;;;;;;5048794;28;9032;-73
2023/03/27 11:16:58;;;;;;;;;0.67;0.67;;;;;;;;5048289;28;9325;-73
2023/03/27 11:19:39;;;;;;;;;0.00;0.00;;;;;;;;5048472;28;9477;-73
2023/03/27 11:22:09;;;;;;;;;0.00;0.00;;;;;;;;5047337;28;9460;-73
2023/03/27 11:24:40;;;;;;;;;1.00;1.00;;;;;;;;5048112;28;9612;-72
2023/03/27 11:27:13;;;;;;;;;1.00;1.00;;;;;;;;5040100;28;9896;-72
2023/03/27 11:29:46;;;;;;;;;0.00;0.00;;;;;;;;5047881;28;9785;-72
2023/03/27 11:32:20;;;;;;;;;0.00;0.00;;;;;;;;5047165;28;9903;-72
2023/03/27 11:34:56;;;;;;;;;0.00;0.00;;;;;;;;5048471;28;9743;-71
2023/03/27 11:37:27;;;;;;;;;0.75;0.75;;;;;;;;5039072;28;9915;-71
2023/03/27 11:39:58;;;;;;;;;0.50;0.50;;;;;;;;5047546;28;9920;-72
2023/03/27 11:42:27;;;;;;;;;1.00;1.00;;;;;;;;5046608;28;10628;-73
2023/03/27 11:44:55;;;;;;;;;3.50;3.50;;;;;;;;5047444;28;10171;-72
2023/03/27 11:47:45;;;;;;;;;2.75;2.00;;;;;;;;5040307;28;10163;-73
2023/03/27 11:50:29;;;;;;;;;0.00;0.00;;;;;;;;5044528;28;10123;-73
2023/03/27 11:53:14;;;;;;;;;0.00;0.00;;;;;;;;5047033;28;9867;-73
2023/03/27 11:55:56;;;;;;;;;0.00;0.00;;;;;;;;5047751;28;9872;-73
2023/03/27 11:58:31;;;;;;;;;0.00;0.00;;;;;;;;5046642;28;9824;-73
2023/03/27 12:01:07;;;;;;;;;1.00;1.00;;;;;;;;5046879;28;9751;-74
2023/03/27 12:04:02;;;;;;;;;5.00;4.00;;;;;;;;5041960;28;9685;-73
2023/03/27 12:06:34;;;;;;;;;14.75;11.25;;;;;;;;5041037;28;9759;-75
2023/03/27 12:09:14;;;;;;;;;9.75;7.00;;;;;;;;5047584;28;11009;-74
2023/03/27 12:11:46;;;;;;;;;4.50;4.50;;;;;;;;5046299;28;9791;-73
2023/03/27 12:14:35;;;;;;;;;8.25;6.25;;;;;;;;5040835;28;9874;-74
2023/03/27 12:17:21;;;;;;;;;4.00;4.00;;;;;;;;5048101;28;9806;-73
2023/03/27 12:20:16;;;;;;;;;1.00;1.00;;;;;;;;5044185;28;9710;-73
2023/03/27 12:22:54;;;;;;;;;0.00;0.00;;;;;;;;5007505;28;9649;-73
2023/03/27 12:25:40;;;;;;;;;0.33;0.00;;;;;;;;5034617;28;9264;-73
2023/03/27 12:28:16;;;;;;;;;1.00;1.00;;;;;;;;5041529;28;9343;-73
2023/03/27 12:30:52;;;;;;;;;1.00;1.00;;;;;;;;5036497;28;9024;-73
2023/03/27 12:33:51;;;;;;;;;2.00;2.00;;;;;;;;5046881;28;8927;-73
2023/03/27 12:36:21;;;;;;;;;2.67;2.67;;;;;;;;5041892;28;9793;-73
2023/03/27 12:38:49;;;;;;;;;0.50;0.50;;;;;;;;5046822;28;9026;-73
2023/03/27 12:41:24;;;;;;;;;0.00;0.00;;;;;;;;5047257;28;8982;-73
2023/03/27 12:43:56;;;;;;;;;2.33;2.33;;;;;;;;5037368;28;8874;-73
2023/03/27 12:46:36;;;;;;;;;2.00;1.00;;;;;;;;5046254;28;9177;-73
2023/03/27 12:49:41;;;;;;;;;11.75;7.25;;;;;;;;5046440;28;9352;-73
2023/03/27 12:52:09;;;;;;;;;5.00;5.00;;;;;;;;5038376;28;10387;-73
2023/03/27 12:54:37;;;;;;;;;5.50;3.75;;;;;;;;5046246;28;9569;-73
2023/03/27 12:57:07;;;;;;;;;4.75;4.75;;;;;;;;5046334;28;9764;-73
2023/03/27 12:59:37;;;;;;;;;5.00;3.00;;;;;;;;5046235;28;9718;-73
2023/03/27 13:02:36;;;;;;;;;1.00;1.00;;;;;;;;5039649;28;9584;-73
2023/03/27 13:05:21;;;;;;;;;3.75;3.75;;;;;;;;5046352;28;9603;-73
2023/03/27 13:07:58;;;;;;;;;3.00;1.25;;;;;;;;5041297;28;9877;-73
2023/03/27 13:10:35;;;;;;;;;0.00;0.00;;;;;;;;5046238;28;9851;-73
2023/03/27 13:13:39;;;;;;;;;0.25;0.25;;;;;;;;5046253;28;9731;-73
2023/03/27 13:16:18;;;;;;;;;3.00;3.00;;;;;;;;5042730;28;9554;-73
2023/03/27 13:19:24;;;;;;;;;2.50;1.00;;;;;;;;5046071;28;9791;-73
2023/03/27 13:22:07;;;;;;;;;3.00;1.50;;;;;;;;5033428;28;9772;-73
2023/03/27 13:24:49;;;;;;;;;3.00;3.00;;;;;;;;5049893;28;9775;-74
2023/03/27 13:27:28;;;;;;;;;36.25;30.50;;;;;;;;5038294;28;10024;-73
2023/03/27 13:29:55;;;;;;;;;3.75;3.75;;;;;;;;5049319;28;10504;-72
2023/03/27 13:32:35;;;;;;;;;8.50;5.75;;;;;;;;5049136;28;9790;-74
2023/03/27 13:35:32;;;;;;;;;1.00;1.00;;;;;;;;5049719;28;9652;-73
2023/03/27 13:38:02;;;;;;;;;1.00;1.00;;;;;;;;5049401;28;9060;-74
2023/03/27 13:40:32;;;;;;;;;1.33;1.33;;;;;;;;5050141;28;8912;-74
2023/03/27 13:43:07;;;;;;;;;5.00;5.00;;;;;;;;5049162;28;8943;-73
2023/03/27 13:45:40;;;;;;;;;3.00;2.50;;;;;;;;5049518;28;9251;-73
2023/03/27 13:48:51;;;;;;;;;2.75;2.75;;;;;;;;5048945;28;8881;-74
2023/03/27 13:51:28;;;;;;;;;0.75;0.75;;;;;;;;5019998;28;8973;-73
2023/03/27 13:54:24;;;;;;;;;1.00;1.00;;;;;;;;5049459;28;8986;-74
2023/03/27 13:57:10;;;;;;;;;2.25;2.25;;;;;;;;5049581;28;8936;-73
2023/03/27 13:59:50;;;;;;;;;1.75;1.75;;;;;;;;5048202;28;8875;-71
2023/03/27 14:02:48;;;;;;;;;0.00;0.00;;;;;;;;5049576;28;8803;-75
2023/03/27 14:05:31;;;;;;;;;0.00;0.00;;;;;;;;5048908;28;8834;-74
2023/03/27 14:08:21;;;;;;;;;3.00;1.25;;;;;;;;5050560;28;8862;-73
2023/03/27 14:11:22;;;;;;;;;1.75;1.00;;;;;;;;5050947;28;8876;-77
2023/03/27 14:14:14;;;;;;;;;1.00;1.00;;;;;;;;5032897;28;8880;-73
2023/03/27 14:17:02;;;;;;;;;0.33;0.33;;;;;;;;5039841;28;8944;-73
2023/03/27 14:19:58;;;;;;;;;4.67;1.67;;;;;;;;5048132;28;9064;-72
2023/03/27 14:22:28;;;;;;;;;1.00;1.00;;;;;;;;5044489;28;9457;-73
2023/03/27 14:24:58;;;;;;;;;2.00;1.00;;;;;;;;5048746;28;9456;-72
2023/03/27 14:27:27;;;;;;;;;1.00;1.00;;;;;;;;5048778;28;9280;-74
2023/03/27 14:30:07;;;;;;;;;0.75;0.75;;;;;;;;5048881;28;9556;-74
2023/03/27 14:32:35;;;;;;;;;3.75;3.75;;;;;;;;5048507;28;9523;-74
2023/03/27 14:35:04;;;;;;;;;1.00;1.00;;;;;;;;5048380;28;9604;-74
2023/03/27 14:37:34;;;;;;;;;4.00;2.00;;;;;;;;5048385;28;9491;-73
2023/03/27 14:40:06;;;;;;;;;1.00;1.00;;;;;;;;5039654;28;10556;-74
2023/03/27 14:42:35;;;;;;;;;1.00;1.00;;;;;;;;5040418;28;9601;-74
2023/03/27 14:45:16;;;;;;;;;0.75;0.75;;;;;;;;5048338;28;9549;-75
2023/03/27 14:47:44;;;;;;;;;1.00;0.00;;;;;;;;5048329;28;9545;-75
2023/03/27 14:50:14;;;;;;;;;1.67;0.00;;;;;;;;5047851;28;10092;-75
2023/03/27 14:52:42;;;;;;;;;0.00;0.00;;;;;;;;5047772;28;9340;-74
2023/03/27 14:55:12;;;;;;;;;1.00;1.00;;;;;;;;5048094;28;9415;-75
2023/03/27 14:57:43;;;;;;;;;1.33;1.00;;;;;;;;5047849;28;9337;-73
2023/03/27 15:00:15;;;;;;;;;1.67;1.67;;;;;;;;5047486;28;9325;-75
2023/03/27 15:02:44;;;;;;;;;1.00;1.00;;;;;;;;5047894;28;9316;-74
2023/03/27 15:05:13;;;;;;;;;1.33;1.33;;;;;;;;5046862;28;9328;-73
2023/03/27 15:07:42;;;;;;;;;1.00;1.00;;;;;;;;5047470;28;9316;-73
2023/03/27 15:10:26;;;;;;;;;8.00;8.00;;;;;;;;5047579;28;10091;-73
2023/03/27 15:12:56;;;;;;;;;4.00;4.00;;;;;;;;5034293;28;9808;-73
2023/03/27 15:15:26;;;;;;;;;3.00;3.00;;;;;;;;5047782;28;9615;-74
2023/03/27 15:17:58;;;;;;;;;1.00;1.00;;;;;;;;5047887;28;9554;-74
2023/03/27 15:20:29;;;;;;;;;6.75;4.75;;;;;;;;5047033;28;9262;-73